Time;durP1;ratioP1;P1;durP2;ratioP2;P2;SDS_P1;SDS_P2;PMS_P1;PMS_P2;Temp;Humidity;BMP_temperature;BMP_pressure;BME280_temperature;BME280_humidity;BME280_pressure;Samples;Min_cycle;Max_cycle;Signal;HPM_P1;HPM_P2
2021/11/10 00:01:21;;;;;;;25.50;22.90;;;1.50;99.90;;;;;;5079514;28;20453;-82
2021/11/10 00:03:49;;;;;;;26.10;22.37;;;1.40;99.90;;;;;;5085231;28;20817;-80
2021/11/10 00:06:19;;;;;;;23.53;21.10;;;1.40;99.90;;;;;;5091557;28;20535;-79
2021/11/10 00:08:46;;;;;;;24.23;21.73;;;1.40;99.90;;;;;;5086517;28;20527;-81
2021/11/10 00:11:13;;;;;;;23.57;21.07;;;1.40;99.90;;;;;;5084303;28;20444;-81
2021/11/10 00:13:39;;;;;;;24.70;20.93;;;1.40;99.90;;;;;;5086028;28;20457;-80
2021/11/10 00:16:07;;;;;;;23.77;21.37;;;1.40;99.90;;;;;;5092180;28;20445;-80
2021/11/10 00:18:33;;;;;;;22.17;19.93;;;1.40;99.90;;;;;;5092175;28;20457;-81
2021/11/10 00:21:02;;;;;;;21.63;19.60;;;1.40;99.90;;;;;;5096662;28;20986;-81
2021/11/10 00:23:29;;;;;;;22.40;20.07;;;1.50;99.90;;;;;;5088224;28;20962;-79
2021/11/10 00:25:56;;;;;;;19.83;18.03;;;1.50;99.90;;;;;;5083554;28;20452;-80
2021/11/10 00:28:23;;;;;;;21.00;18.83;;;1.50;99.90;;;;;;5092397;28;20474;-81
2021/11/10 00:30:51;;;;;;;22.23;19.33;;;1.60;99.90;;;;;;5072182;28;20480;-79
2021/11/10 00:33:18;;;;;;;22.83;20.83;;;1.50;99.90;;;;;;5084182;28;20458;-80
2021/11/10 00:35:45;;;;;;;21.50;19.23;;;1.50;99.90;;;;;;5084676;28;20840;-80
2021/11/10 00:38:13;;;;;;;21.00;19.20;;;1.60;99.90;;;;;;5086532;28;20454;-80
2021/11/10 00:40:40;;;;;;;21.10;19.00;;;1.60;99.90;;;;;;5077830;28;20549;-81
2021/11/10 00:43:07;;;;;;;20.57;18.50;;;1.60;99.90;;;;;;5084680;28;20513;-80
2021/11/10 00:45:33;;;;;;;21.67;19.77;;;1.50;99.90;;;;;;5087965;28;20460;-80
2021/11/10 00:48:00;;;;;;;21.73;19.67;;;1.50;99.90;;;;;;5090840;28;20859;-79
2021/11/10 00:50:27;;;;;;;22.03;19.83;;;1.50;99.90;;;;;;5080224;28;20481;-81
2021/11/10 00:52:54;;;;;;;22.40;20.23;;;1.50;99.90;;;;;;5091789;28;20424;-81
2021/11/10 00:55:24;;;;;;;22.13;20.00;;;1.50;99.90;;;;;;5093791;28;20521;-80
2021/11/10 00:57:51;;;;;;;23.37;20.67;;;1.50;99.90;;;;;;5088598;28;20441;-80
2021/11/10 01:00:19;;;;;;;21.23;19.13;;;1.60;99.90;;;;;;5090482;28;20559;-80
2021/11/10 01:02:46;;;;;;;20.23;18.43;;;1.50;99.90;;;;;;5082760;28;20440;-79
2021/11/10 01:05:13;;;;;;;21.63;19.63;;;1.50;99.90;;;;;;5091743;28;20844;-79
2021/11/10 01:07:41;;;;;;;21.07;18.97;;;1.40;99.90;;;;;;5084628;28;20523;-80
2021/11/10 01:10:08;;;;;;;20.37;18.50;;;1.40;99.90;;;;;;5076001;28;20461;-81
2021/11/10 01:12:36;;;;;;;20.60;18.53;;;1.30;99.90;;;;;;5091799;28;20446;-80
2021/11/10 01:15:06;;;;;;;20.33;18.23;;;1.30;99.90;;;;;;5086287;28;20444;-81
2021/11/10 01:17:33;;;;;;;21.10;18.90;;;1.30;99.90;;;;;;5091741;28;20746;-80
2021/11/10 01:20:01;;;;;;;21.00;19.00;;;1.30;99.90;;;;;;5081784;28;20468;-80
2021/11/10 01:22:31;;;;;;;21.33;19.03;;;1.30;99.90;;;;;;5088177;28;20445;-80
2021/11/10 01:24:58;;;;;;;23.93;19.43;;;1.30;99.90;;;;;;5083619;28;20519;-80
2021/11/10 01:27:26;;;;;;;20.60;18.70;;;1.30;99.90;;;;;;5092082;28;20451;-80
2021/11/10 01:29:54;;;;;;;20.97;18.77;;;1.30;99.90;;;;;;5084692;28;20877;-80
2021/11/10 01:32:22;;;;;;;20.60;18.60;;;1.20;99.90;;;;;;5088571;28;20541;-80
2021/11/10 01:34:51;;;;;;;21.83;19.63;;;1.10;99.90;;;;;;5080865;28;20446;-80
2021/11/10 01:37:19;;;;;;;19.90;18.10;;;1.10;99.90;;;;;;5079399;28;21013;-81
2021/11/10 01:39:47;;;;;;;20.23;18.10;;;1.00;99.90;;;;;;5089951;28;20563;-80
2021/11/10 01:42:19;;;;;;;20.67;18.67;;;0.90;99.90;;;;;;5080897;28;20522;-80
2021/11/10 01:44:50;;;;;;;20.17;18.27;;;0.90;99.90;;;;;;5090909;28;20448;-80
2021/11/10 01:47:18;;;;;;;20.83;18.43;;;0.80;99.90;;;;;;5081405;28;20451;-80
2021/11/10 01:49:45;;;;;;;21.60;19.40;;;0.80;99.90;;;;;;5091666;28;20467;-80
2021/11/10 01:52:15;;;;;;;21.00;18.87;;;0.80;99.90;;;;;;5089023;28;20821;-79
2021/11/10 01:54:43;;;;;;;21.30;19.00;;;0.80;99.90;;;;;;5078368;28;20448;-81
2021/11/10 01:57:15;;;;;;;22.13;19.93;;;0.80;99.90;;;;;;5090025;28;20452;-80
2021/11/10 01:59:45;;;;;;;22.40;19.53;;;0.70;99.90;;;;;;5078617;28;20468;-80
2021/11/10 02:02:19;;;;;;;21.07;19.13;;;0.70;99.90;;;;;;5090349;28;20448;-79
2021/11/10 02:04:50;;;;;;;22.03;19.83;;;0.60;99.90;;;;;;5087622;28;20493;-80
2021/11/10 02:07:18;;;;;;;23.00;20.60;;;0.60;99.90;;;;;;5087296;28;20509;-78
2021/11/10 02:09:48;;;;;;;24.10;21.63;;;0.60;99.90;;;;;;5090109;28;20462;-79
2021/11/10 02:12:15;;;;;;;23.47;21.10;;;0.60;99.90;;;;;;5080859;28;20493;-80
2021/11/10 02:14:47;;;;;;;27.23;21.47;;;0.60;99.90;;;;;;5088643;28;20442;-80
2021/11/10 02:17:16;;;;;;;23.57;21.27;;;0.60;99.90;;;;;;5090525;28;20456;-80
2021/11/10 02:19:44;;;;;;;23.37;20.87;;;0.60;99.90;;;;;;5101598;28;20455;-80
2021/11/10 02:22:21;;;;;;;23.23;20.90;;;0.70;99.90;;;;;;5094124;28;20458;-79
2021/11/10 02:24:49;;;;;;;23.07;20.87;;;0.60;99.90;;;;;;5092868;28;20440;-80
2021/11/10 02:27:18;;;;;;;23.63;21.40;;;0.60;99.90;;;;;;5086069;28;20495;-79
2021/11/10 02:29:47;;;;;;;24.13;21.90;;;0.60;99.90;;;;;;5094126;28;20499;-79
2021/11/10 02:32:15;;;;;;;25.27;22.57;;;0.60;99.90;;;;;;5089150;28;20547;-80
2021/11/10 02:34:44;;;;;;;23.43;21.33;;;0.50;99.90;;;;;;5093904;28;20440;-79
2021/11/10 02:37:15;;;;;;;25.10;22.33;;;0.50;99.90;;;;;;5085832;28;20452;-80
2021/11/10 02:39:44;;;;;;;26.67;22.23;;;0.50;99.90;;;;;;5089767;28;20464;-80
2021/11/10 02:42:11;;;;;;;24.53;22.00;;;0.50;99.90;;;;;;5090022;28;20440;-79
2021/11/10 02:44:38;;;;;;;24.53;22.03;;;0.60;99.90;;;;;;5088537;28;20530;-79
2021/11/10 02:47:06;;;;;;;25.27;22.83;;;0.60;99.90;;;;;;5091142;28;20867;-80
2021/11/10 02:49:33;;;;;;;24.27;21.73;;;0.70;99.90;;;;;;5091114;28;20472;-80
2021/11/10 02:52:03;;;;;;;26.30;23.53;;;0.70;99.90;;;;;;5087022;28;20471;-80
2021/11/10 02:54:35;;;;;;;25.00;22.47;;;0.70;99.90;;;;;;5091387;28;20447;-80
2021/11/10 02:57:06;;;;;;;24.53;22.23;;;0.70;99.90;;;;;;5081691;28;20444;-79
2021/11/10 02:59:33;;;;;;;26.03;23.57;;;0.70;99.90;;;;;;5086951;28;20837;-80
2021/11/10 03:02:02;;;;;;;25.10;22.47;;;0.70;99.90;;;;;;5086281;28;21066;-80
2021/11/10 03:04:30;;;;;;;23.77;21.47;;;0.70;99.90;;;;;;5085639;28;20452;-80
2021/11/10 03:06:58;;;;;;;25.10;22.50;;;0.80;99.90;;;;;;5085216;28;20453;-80
2021/11/10 03:09:29;;;;;;;26.13;22.77;;;0.80;99.90;;;;;;5085603;28;20479;-80
2021/11/10 03:12:01;;;;;;;24.93;22.40;;;0.70;99.90;;;;;;5092512;28;20476;-79
2021/11/10 03:14:34;;;;;;;24.03;21.77;;;0.70;99.90;;;;;;5090151;28;20997;-79
2021/11/10 03:17:03;;;;;;;25.30;23.00;;;0.60;99.90;;;;;;5087782;28;20540;-80
2021/11/10 03:19:33;;;;;;;24.87;22.33;;;0.70;99.90;;;;;;5086602;28;20467;-80
2021/11/10 03:22:03;;;;;;;25.47;23.00;;;0.80;99.90;;;;;;5085356;28;20478;-79
2021/11/10 03:24:31;;;;;;;24.23;22.00;;;0.80;99.90;;;;;;5088926;28;20505;-79
2021/11/10 03:26:58;;;;;;;26.37;23.17;;;0.80;99.90;;;;;;5092569;28;20493;-80
2021/11/10 03:29:26;;;;;;;24.87;22.60;;;0.80;99.90;;;;;;5093111;28;21056;-79
2021/11/10 03:31:55;;;;;;;24.50;22.00;;;0.80;99.90;;;;;;5093193;28;20537;-81
2021/11/10 03:34:22;;;;;;;24.27;22.07;;;0.90;99.90;;;;;;5094237;28;20440;-78
2021/11/10 03:36:50;;;;;;;23.57;21.57;;;0.90;99.90;;;;;;5093345;28;20472;-80
2021/11/10 03:39:19;;;;;;;23.37;21.17;;;0.80;99.90;;;;;;5093596;28;20854;-80
2021/11/10 03:41:46;;;;;;;23.47;21.20;;;0.80;99.90;;;;;;5093364;28;20471;-78
2021/11/10 03:44:14;;;;;;;23.97;21.60;;;0.80;99.90;;;;;;5093564;28;20440;-82
2021/11/10 03:46:45;;;;;;;24.23;21.80;;;0.80;99.90;;;;;;5092374;28;20449;-81
2021/11/10 03:49:15;;;;;;;25.07;22.23;;;0.80;99.90;;;;;;5087319;28;20477;-79
2021/11/10 03:51:44;;;;;;;24.60;22.03;;;0.80;99.90;;;;;;5088838;28;20445;-79
2021/11/10 03:54:13;;;;;;;24.27;21.77;;;0.70;99.90;;;;;;5088494;28;20456;-79
2021/11/10 03:56:40;;;;;;;25.33;22.60;;;0.70;99.90;;;;;;5092093;28;20444;-79
2021/11/10 03:59:07;;;;;;;23.50;21.13;;;0.60;99.90;;;;;;5094680;28;20460;-79
2021/11/10 04:01:34;;;;;;;24.80;22.40;;;0.60;99.90;;;;;;5088355;28;20568;-78
2021/11/10 04:04:04;;;;;;;23.63;21.37;;;0.50;99.90;;;;;;5080863;28;20514;-79
2021/11/10 04:06:33;;;;;;;22.67;20.40;;;0.50;99.90;;;;;;5081689;28;20443;-78
2021/11/10 04:09:00;;;;;;;22.73;20.57;;;0.40;99.90;;;;;;5086387;28;20470;-79
2021/11/10 04:11:27;;;;;;;24.73;22.47;;;0.40;99.90;;;;;;5093013;28;20475;-78
2021/11/10 04:13:54;;;;;;;25.73;23.23;;;0.40;99.90;;;;;;5085278;28;20474;-79
2021/11/10 04:16:23;;;;;;;23.53;21.37;;;0.40;99.90;;;;;;5091094;28;20448;-80
2021/11/10 04:18:54;;;;;;;23.87;21.70;;;0.40;99.90;;;;;;5084831;28;20470;-78
2021/11/10 04:21:25;;;;;;;24.70;22.17;;;0.40;99.90;;;;;;5083830;28;20473;-81
2021/11/10 04:23:57;;;;;;;25.47;23.00;;;0.40;99.90;;;;;;5086042;28;21059;-81
2021/11/10 04:26:29;;;;;;;24.27;21.97;;;0.40;99.90;;;;;;5089623;28;20498;-81
2021/11/10 04:28:58;;;;;;;24.20;21.90;;;0.40;99.90;;;;;;5091262;28;20463;-82
2021/11/10 04:31:25;;;;;;;23.97;21.63;;;0.40;99.90;;;;;;5093507;28;20494;-82
2021/11/10 04:33:54;;;;;;;23.33;21.27;;;0.40;99.90;;;;;;5087227;28;20449;-81
2021/11/10 04:36:24;;;;;;;22.83;20.80;;;0.40;99.90;;;;;;5087191;28;20459;-81
2021/11/10 04:38:57;;;;;;;24.10;21.83;;;0.40;99.90;;;;;;5083419;28;20467;-81
2021/11/10 04:41:25;;;;;;;25.47;20.40;;;0.40;99.90;;;;;;5089583;28;20467;-82
2021/11/10 04:43:53;;;;;;;23.97;21.57;;;0.40;99.90;;;;;;5085999;28;20440;-81
2021/11/10 04:46:25;;;;;;;24.07;21.57;;;0.40;99.90;;;;;;5086031;28;20454;-81
2021/11/10 04:48:51;;;;;;;24.37;22.17;;;0.30;99.90;;;;;;5086086;28;20992;-80
2021/11/10 04:51:22;;;;;;;24.40;21.83;;;0.30;99.90;;;;;;5087619;28;20547;-82
2021/11/10 04:53:49;;;;;;;21.80;19.70;;;0.30;99.90;;;;;;5083974;28;20449;-81
2021/11/10 04:56:20;;;;;;;22.80;20.67;;;0.20;99.90;;;;;;5086288;28;20460;-81
2021/11/10 04:58:49;;;;;;;22.50;20.20;;;0.30;99.90;;;;;;5088360;28;20548;-81
2021/11/10 05:01:22;;;;;;;24.13;21.73;;;0.20;99.90;;;;;;5089378;28;20559;-80
2021/11/10 05:03:49;;;;;;;24.17;21.40;;;0.10;99.90;;;;;;5092548;28;20442;-81
2021/11/10 05:06:18;;;;;;;22.67;20.67;;;0.10;99.90;;;;;;5089252;28;20836;-81
2021/11/10 05:08:45;;;;;;;22.47;20.27;;;0.20;99.90;;;;;;5093617;28;20478;-81
2021/11/10 05:11:13;;;;;;;27.13;21.43;;;0.20;99.90;;;;;;5086102;28;20452;-81
2021/11/10 05:13:42;;;;;;;24.23;21.40;;;0.20;99.90;;;;;;5085578;28;20445;-81
2021/11/10 05:16:09;;;;;;;24.60;21.83;;;0.20;99.90;;;;;;5082883;28;20508;-80
2021/11/10 05:18:36;;;;;;;24.87;21.53;;;0.20;99.90;;;;;;5086493;28;20441;-81
2021/11/10 05:21:03;;;;;;;23.73;21.33;;;0.20;99.90;;;;;;5090996;28;20899;-81
2021/11/10 05:23:30;;;;;;;23.00;20.73;;;0.30;99.90;;;;;;5091102;28;20450;-81
2021/11/10 05:25:57;;;;;;;23.27;20.77;;;0.20;99.90;;;;;;5088670;28;20501;-81
2021/11/10 05:28:24;;;;;;;22.90;20.43;;;0.30;99.90;;;;;;5094064;28;20440;-81
2021/11/10 05:30:52;;;;;;;24.37;21.40;;;0.30;99.90;;;;;;5089762;28;20448;-81
2021/11/10 05:33:19;;;;;;;23.77;21.50;;;0.30;99.90;;;;;;5090168;28;20431;-81
2021/11/10 05:35:46;;;;;;;25.00;22.30;;;0.30;99.90;;;;;;5087908;28;20440;-81
2021/11/10 05:38:13;;;;;;;22.93;20.63;;;0.30;99.90;;;;;;5090540;28;20440;-81
2021/11/10 05:40:40;;;;;;;23.53;20.87;;;0.30;99.90;;;;;;5095344;28;20464;-82
2021/11/10 05:43:07;;;;;;;23.50;21.20;;;0.30;99.90;;;;;;5091006;28;20444;-82
2021/11/10 05:45:34;;;;;;;23.43;21.13;;;0.30;99.90;;;;;;5087997;28;20969;-82
2021/11/10 05:48:03;;;;;;;25.47;22.63;;;0.30;99.90;;;;;;5095984;28;20443;-81
2021/11/10 05:50:30;;;;;;;23.90;21.27;;;0.30;99.90;;;;;;5094437;28;20499;-82
2021/11/10 05:52:57;;;;;;;23.97;21.40;;;0.20;99.90;;;;;;5096709;28;21022;-81
2021/11/10 05:55:25;;;;;;;24.07;21.53;;;0.30;99.90;;;;;;5088895;28;20470;-82
2021/11/10 05:57:53;;;;;;;23.20;21.00;;;0.20;99.90;;;;;;5088242;28;20435;-79
2021/11/10 06:00:20;;;;;;;25.73;22.40;;;0.30;99.90;;;;;;5092564;28;20487;-82
2021/11/10 06:02:47;;;;;;;25.10;22.17;;;0.30;99.90;;;;;;5088349;28;20471;-82
2021/11/10 06:05:17;;;;;;;23.37;20.93;;;0.30;99.90;;;;;;5097756;28;20970;-81
2021/11/10 06:07:45;;;;;;;23.93;21.73;;;0.20;99.90;;;;;;5085842;28;20453;-81
2021/11/10 06:10:13;;;;;;;24.27;21.90;;;0.20;99.90;;;;;;5092278;28;20444;-81
2021/11/10 06:12:40;;;;;;;24.30;21.80;;;0.20;99.90;;;;;;5091431;28;20529;-82
2021/11/10 06:15:08;;;;;;;25.10;22.57;;;0.20;99.90;;;;;;5092025;28;20828;-80
2021/11/10 06:17:35;;;;;;;24.83;22.17;;;0.20;99.90;;;;;;5095558;28;20517;-81
2021/11/10 06:20:02;;;;;;;24.17;21.50;;;0.20;99.90;;;;;;5089176;28;21024;-82
2021/11/10 06:22:31;;;;;;;25.77;22.00;;;0.10;99.90;;;;;;5094733;28;20472;-81
2021/11/10 06:24:58;;;;;;;24.00;21.70;;;0.10;99.90;;;;;;5092124;28;20433;-80
2021/11/10 06:27:25;;;;;;;24.67;22.07;;;0.20;99.90;;;;;;5091083;28;20449;-80
2021/11/10 06:29:52;;;;;;;25.33;22.63;;;0.20;99.90;;;;;;5084997;28;20522;-81
2021/11/10 06:32:19;;;;;;;24.03;21.27;;;0.20;99.90;;;;;;5088983;28;20477;-81
2021/11/10 06:34:46;;;;;;;23.33;20.90;;;0.20;99.90;;;;;;5090131;28;20479;-81
2021/11/10 06:37:13;;;;;;;23.30;21.00;;;0.30;99.90;;;;;;5095411;28;20452;-81
2021/11/10 06:39:42;;;;;;;23.07;20.87;;;0.30;99.90;;;;;;5090577;28;20467;-81
2021/11/10 06:42:09;;;;;;;26.00;22.93;;;0.40;99.90;;;;;;5089877;28;20457;-81
2021/11/10 06:44:36;;;;;;;25.63;23.13;;;0.50;99.90;;;;;;5089078;28;20483;-81
2021/11/10 06:47:03;;;;;;;26.60;24.07;;;0.50;99.90;;;;;;5092573;28;20445;-81
2021/11/10 06:49:31;;;;;;;26.60;23.90;;;0.60;99.90;;;;;;5093216;28;20517;-81
2021/11/10 06:51:58;;;;;;;27.23;24.50;;;0.60;99.90;;;;;;5088644;28;20441;-81
2021/11/10 06:54:26;;;;;;;25.57;23.27;;;0.70;99.90;;;;;;5089432;28;20428;-82
2021/11/10 06:56:54;;;;;;;24.20;22.00;;;0.80;99.90;;;;;;5091830;28;20483;-81
2021/11/10 06:59:21;;;;;;;24.10;21.93;;;0.80;99.90;;;;;;5089889;28;20460;-81
2021/11/10 07:01:49;;;;;;;27.37;24.50;;;0.80;99.90;;;;;;5088885;28;20476;-82
2021/11/10 07:04:16;;;;;;;25.73;23.27;;;0.90;99.90;;;;;;5095177;28;20472;-81
2021/11/10 07:06:43;;;;;;;25.40;22.90;;;0.90;99.90;;;;;;5093126;28;20454;-82
2021/11/10 07:09:10;;;;;;;24.87;22.67;;;1.00;99.90;;;;;;5089369;28;20448;-82
2021/11/10 07:11:37;;;;;;;25.43;23.00;;;1.10;99.90;;;;;;5093990;28;20456;-81
2021/11/10 07:14:08;;;;;;;25.57;22.90;;;1.20;99.90;;;;;;5094709;28;20969;-82
2021/11/10 07:16:35;;;;;;;24.70;22.40;;;1.30;99.90;;;;;;5089338;28;20473;-83
2021/11/10 07:19:02;;;;;;;25.87;23.30;;;1.30;99.90;;;;;;5093500;28;20464;-81
2021/11/10 07:21:29;;;;;;;25.40;23.00;;;1.30;99.90;;;;;;5093967;28;20472;-83
2021/11/10 07:23:57;;;;;;;25.10;22.70;;;1.40;99.90;;;;;;5080032;28;20445;-81
2021/11/10 07:26:24;;;;;;;26.40;23.67;;;1.40;99.90;;;;;;5087221;28;20547;-81
2021/11/10 07:28:51;;;;;;;24.70;22.40;;;1.50;99.90;;;;;;5078315;28;21031;-81
2021/11/10 07:31:20;;;;;;;23.40;21.30;;;1.60;99.90;;;;;;5088381;28;20891;-81
2021/11/10 07:33:46;;;;;;;23.73;21.50;;;1.70;99.90;;;;;;5088816;28;21026;-82
2021/11/10 07:36:13;;;;;;;24.70;22.33;;;1.80;99.90;;;;;;5091848;28;20499;-81
2021/11/10 07:38:40;;;;;;;24.97;22.70;;;1.80;99.90;;;;;;5090435;28;20663;-82
2021/11/10 07:41:08;;;;;;;27.07;23.27;;;2.00;99.90;;;;;;5088570;28;20462;-82
2021/11/10 07:43:35;;;;;;;24.80;22.30;;;2.10;99.90;;;;;;5086470;28;20476;-81
2021/11/10 07:46:07;;;;;;;25.90;23.37;;;2.10;99.90;;;;;;5085406;28;20445;-81
2021/11/10 07:48:35;;;;;;;24.50;22.03;;;2.30;99.90;;;;;;5091346;28;20478;-82
2021/11/10 07:51:03;;;;;;;23.30;21.10;;;2.40;99.90;;;;;;5088802;28;20456;-80
2021/11/10 07:53:30;;;;;;;23.27;21.07;;;2.50;99.90;;;;;;5089040;28;20864;-81
2021/11/10 07:55:57;;;;;;;23.33;21.20;;;2.60;99.90;;;;;;5091412;28;20432;-80
2021/11/10 07:58:24;;;;;;;23.17;21.07;;;2.70;99.90;;;;;;5091185;28;20436;-81
2021/11/10 08:00:51;;;;;;;22.27;20.27;;;2.90;99.90;;;;;;5086375;28;20460;-82
2021/11/10 08:03:18;;;;;;;24.60;22.33;;;3.00;99.90;;;;;;5088655;28;20475;-80
2021/11/10 08:05:49;;;;;;;23.77;21.50;;;3.00;99.90;;;;;;5086824;28;20511;-83
2021/11/10 08:08:16;;;;;;;24.17;21.97;;;3.10;99.90;;;;;;5087670;28;20459;-82
2021/11/10 08:10:46;;;;;;;23.87;21.53;;;3.20;99.90;;;;;;5082160;28;20463;-81
2021/11/10 08:13:13;;;;;;;23.30;21.13;;;3.30;99.90;;;;;;5087804;28;21034;-82
2021/11/10 08:15:40;;;;;;;23.13;20.87;;;3.30;99.90;;;;;;5092131;28;20853;-81
2021/11/10 08:18:07;;;;;;;22.80;20.97;;;3.40;99.90;;;;;;5087658;28;20972;-80
2021/11/10 08:20:34;;;;;;;23.03;20.83;;;3.40;99.90;;;;;;5087505;28;20466;-81
2021/11/10 08:23:02;;;;;;;23.03;21.07;;;3.40;99.90;;;;;;5087322;28;20467;-82
2021/11/10 08:25:29;;;;;;;23.17;20.97;;;3.50;99.90;;;;;;5087938;28;20429;-80
2021/11/10 08:27:56;;;;;;;23.53;21.27;;;3.50;99.90;;;;;;5088020;28;20890;-79
2021/11/10 08:30:24;;;;;;;22.80;20.60;;;3.60;99.90;;;;;;5087852;28;20887;-81
2021/11/10 08:32:53;;;;;;;22.97;20.83;;;3.60;99.90;;;;;;5091768;28;20280;-81
2021/11/10 08:35:21;;;;;;;22.33;20.43;;;3.70;99.90;;;;;;5088089;28;20448;-81
2021/11/10 08:37:50;;;;;;;23.57;21.47;;;3.70;99.90;;;;;;5088276;28;20436;-81
2021/11/10 08:40:19;;;;;;;24.13;21.73;;;3.80;99.90;;;;;;5086984;28;20464;-81
2021/11/10 08:42:46;;;;;;;24.10;21.77;;;3.80;99.90;;;;;;5086014;28;20463;-81
2021/11/10 08:45:14;;;;;;;23.70;21.60;;;3.70;99.90;;;;;;5086861;28;20445;-81
2021/11/10 08:47:42;;;;;;;22.80;20.80;;;3.70;99.90;;;;;;5091114;28;20489;-80
2021/11/10 08:50:10;;;;;;;23.77;21.47;;;3.70;99.90;;;;;;5086463;28;20523;-80
2021/11/10 08:52:37;;;;;;;23.43;21.27;;;3.60;99.90;;;;;;5090232;28;20557;-82
2021/11/10 08:55:08;;;;;;;22.57;20.50;;;3.60;99.90;;;;;;5079248;28;20443;-81
2021/11/10 08:57:37;;;;;;;22.90;20.97;;;3.60;99.90;;;;;;5088130;28;20228;-80
2021/11/10 09:00:05;;;;;;;25.03;22.63;;;3.60;99.90;;;;;;5091599;28;20479;-81
2021/11/10 09:02:32;;;;;;;24.47;22.27;;;3.60;99.90;;;;;;5093302;28;20521;-81
2021/11/10 09:04:59;;;;;;;24.63;22.33;;;3.60;99.90;;;;;;5089022;28;20424;-80
2021/11/10 09:07:26;;;;;;;22.37;20.10;;;3.70;99.90;;;;;;5085301;28;20255;-81
2021/11/10 09:09:53;;;;;;;20.00;18.30;;;3.80;99.90;;;;;;5087657;28;20468;-80
2021/11/10 09:12:20;;;;;;;18.83;14.97;;;3.90;99.90;;;;;;5085976;28;20449;-80
2021/11/10 09:14:48;;;;;;;18.27;16.37;;;3.90;99.90;;;;;;5095127;28;20619;-80
2021/11/10 09:17:14;;;;;;;16.30;11.90;;;4.00;99.90;;;;;;5083167;28;20440;-81
2021/11/10 09:19:41;;;;;;;16.57;12.37;;;4.00;99.90;;;;;;5080955;28;20225;-80
2021/11/10 09:22:09;;;;;;;17.07;12.73;;;4.10;99.90;;;;;;5092757;28;20212;-81
2021/11/10 09:24:36;;;;;;;15.90;11.77;;;4.30;99.90;;;;;;5088496;28;20202;-81
2021/11/10 09:27:04;;;;;;;18.83;12.83;;;4.40;99.90;;;;;;5091681;28;20260;-81
2021/11/10 09:29:31;;;;;;;17.27;15.03;;;4.50;99.90;;;;;;5093365;28;20202;-82
2021/11/10 09:32:00;;;;;;;12.43;10.90;;;4.60;99.90;;;;;;5087769;28;20255;-82
2021/11/10 09:34:27;;;;;;;12.80;10.73;;;4.60;99.90;;;;;;5090022;28;20194;-81
2021/11/10 09:36:54;;;;;;;14.60;11.43;;;4.70;99.90;;;;;;5091489;28;20206;-81
2021/11/10 09:39:23;;;;;;;14.37;12.27;;;4.70;99.90;;;;;;5090609;28;20217;-81
2021/11/10 09:41:53;;;;;;;12.63;10.73;;;4.70;99.90;;;;;;5080756;28;20255;-81
2021/11/10 09:44:21;;;;;;;14.37;10.67;;;4.60;99.90;;;;;;5089894;28;20650;-81
2021/11/10 09:46:50;;;;;;;14.17;10.90;;;4.70;99.90;;;;;;5092623;28;20574;-81
2021/11/10 09:49:18;;;;;;;16.23;10.93;;;4.70;99.90;;;;;;5090071;28;20563;-81
2021/11/10 09:51:47;;;;;;;19.97;17.97;;;4.80;99.90;;;;;;5088026;28;20205;-81
2021/11/10 09:54:14;;;;;;;21.33;19.37;;;4.90;99.90;;;;;;5085907;28;20540;-81
2021/11/10 09:56:42;;;;;;;20.47;18.67;;;5.00;99.90;;;;;;5082199;28;20294;-81
2021/11/10 09:59:09;;;;;;;19.37;10.87;;;5.10;99.90;;;;;;5084417;28;20219;-81
2021/11/10 10:01:37;;;;;;;14.90;10.80;;;5.10;99.90;;;;;;5087904;28;20264;-81
2021/11/10 10:04:05;;;;;;;13.30;10.57;;;5.10;99.90;;;;;;5093537;28;20210;-81
2021/11/10 10:06:34;;;;;;;12.50;11.20;;;5.20;99.90;;;;;;5092733;28;20618;-81
2021/11/10 10:09:02;;;;;;;16.57;11.13;;;5.20;99.90;;;;;;5080894;28;20275;-81
2021/11/10 10:11:29;;;;;;;12.97;10.17;;;5.30;99.90;;;;;;5091293;28;20196;-80
2021/11/10 10:13:57;;;;;;;15.60;10.43;;;5.30;99.90;;;;;;5094349;28;20221;-82
2021/11/10 10:16:25;;;;;;;14.77;11.53;;;5.30;99.90;;;;;;5083351;28;20610;-81
2021/11/10 10:19:03;;;;;;;14.43;11.87;;;5.30;99.90;;;;;;5086217;28;20643;-81
2021/11/10 10:21:31;;;;;;;12.57;10.80;;;5.40;99.90;;;;;;5091364;28;20202;-81
2021/11/10 10:24:00;;;;;;;12.43;10.73;;;5.40;99.90;;;;;;5096038;28;20706;-81
2021/11/10 10:26:28;;;;;;;16.63;12.47;;;5.50;99.90;;;;;;5088274;28;20290;-81
2021/11/10 10:28:56;;;;;;;14.27;12.80;;;5.60;99.90;;;;;;5082152;28;20230;-83
2021/11/10 10:31:25;;;;;;;24.37;22.17;;;5.60;99.90;;;;;;5091046;28;20206;-81
2021/11/10 10:33:54;;;;;;;13.90;11.17;;;5.70;99.90;;;;;;5091160;28;20206;-81
2021/11/10 10:36:22;;;;;;;14.30;11.03;;;5.80;99.90;;;;;;5086781;28;20199;-81
2021/11/10 10:38:51;;;;;;;15.03;11.70;;;5.90;99.90;;;;;;5090616;28;20271;-82
2021/11/10 10:41:22;;;;;;;13.03;11.00;;;6.10;99.90;;;;;;5090818;28;20293;-81
2021/11/10 10:43:52;;;;;;;17.53;15.83;;;6.10;99.90;;;;;;5091948;28;20206;-81
2021/11/10 10:46:21;;;;;;;16.10;14.60;;;6.10;99.90;;;;;;5090123;28;20190;-81
2021/11/10 10:48:48;;;;;;;21.37;19.57;;;6.30;99.90;;;;;;5086563;28;20218;-82
2021/11/10 10:51:23;;;;;;;17.10;14.47;;;6.50;99.90;;;;;;5082476;28;20767;-83
2021/11/10 10:54:15;;;;;;;13.13;11.03;;;6.50;99.90;;;;;;5079508;28;20198;-81
2021/11/10 10:56:58;;;;;;;16.73;14.93;;;6.70;99.90;;;;;;5074966;28;20199;-82
2021/11/10 10:59:45;;;;;;;19.33;17.43;;;6.70;99.90;;;;;;5082805;28;20667;-83
2021/11/10 11:02:15;;;;;;;18.73;16.83;;;6.90;99.90;;;;;;5093319;28;20236;-81
2021/11/10 11:04:53;;;;;;;15.73;12.67;;;7.00;99.90;;;;;;5091271;28;20208;-82
2021/11/10 11:07:29;;;;;;;15.67;10.87;;;7.10;99.90;;;;;;5089707;28;20207;-81
2021/11/10 11:10:16;;;;;;;12.83;10.90;;;7.00;99.90;;;;;;5080944;28;20207;-81
2021/11/10 11:12:54;;;;;;;13.93;10.47;;;7.10;99.90;;;;;;5096454;28;20192;-81
2021/11/10 11:15:26;;;;;;;19.30;17.37;;;7.10;99.90;;;;;;5087214;28;20278;-83
2021/11/10 11:18:08;;;;;;;18.17;16.47;;;7.10;99.90;;;;;;5082896;28;20191;-82
2021/11/10 11:20:39;;;;;;;20.00;18.30;;;7.20;99.90;;;;;;5094524;28;20236;-81
2021/11/10 11:23:16;;;;;;;21.13;19.23;;;7.20;99.90;;;;;;5094269;28;20242;-81
2021/11/10 11:26:01;;;;;;;14.87;10.57;;;7.20;99.90;;;;;;5094296;28;20202;-81
2021/11/10 11:28:41;;;;;;;15.33;11.33;;;7.10;99.90;;;;;;5091225;28;20200;-80
2021/11/10 11:31:12;;;;;;;15.00;11.80;;;7.20;99.90;;;;;;5088969;28;20576;-81
2021/11/10 11:34:00;;;;;;;20.83;19.10;;;7.10;99.90;;;;;;5093158;28;20188;-81
2021/11/10 11:36:58;;;;;;;22.10;20.03;;;7.10;99.90;;;;;;5092402;28;20196;-81
2021/11/10 11:39:41;;;;;;;21.50;19.50;;;7.20;99.90;;;;;;5092709;28;20269;-80
2021/11/10 11:42:10;;;;;;;21.20;19.07;;;7.30;99.90;;;;;;5092346;28;20193;-80
2021/11/10 11:44:52;;;;;;;20.00;18.20;;;7.30;99.90;;;;;;5094123;28;20231;-81
2021/11/10 11:47:29;;;;;;;21.87;19.77;;;7.40;99.90;;;;;;5092911;28;20204;-80
2021/11/10 11:50:07;;;;;;;20.70;18.87;;;7.40;99.90;;;;;;5073466;28;20679;-80
2021/11/10 11:52:42;;;;;;;20.60;18.73;;;7.50;99.90;;;;;;5090031;28;20232;-80
2021/11/10 11:55:24;;;;;;;19.97;18.27;;;7.60;99.90;;;;;;5093161;28;20195;-80
2021/11/10 11:58:32;;;;;;;20.80;18.60;;;7.60;99.90;;;;;;5084691;28;21031;-81
2021/11/10 12:01:40;;;;;;;20.17;18.43;;;7.70;99.90;;;;;;5037615;28;20216;-80
2021/11/10 12:04:12;;;;;;;20.50;18.60;;;7.70;99.90;;;;;;5084970;28;20213;-81
2021/11/10 12:06:58;;;;;;;20.70;18.70;;;7.80;99.90;;;;;;5086360;28;20219;-80
2021/11/10 12:09:34;;;;;;;21.10;19.10;;;7.90;99.90;;;;;;5087784;28;20222;-80
2021/11/10 12:12:11;;;;;;;20.63;18.73;;;7.90;99.90;;;;;;5091327;28;20204;-80
2021/11/10 12:14:48;;;;;;;20.63;18.77;;;7.90;99.90;;;;;;5091978;28;20196;-80
2021/11/10 12:17:22;;;;;;;19.67;17.77;;;8.00;99.90;;;;;;5093803;28;20192;-80
2021/11/10 12:19:56;;;;;;;20.40;18.70;;;8.10;99.90;;;;;;5085468;28;20212;-81
2021/11/10 12:22:29;;;;;;;21.70;19.63;;;8.10;99.90;;;;;;5091495;28;20201;-80
2021/11/10 12:25:31;;;;;;;20.07;18.30;;;8.20;99.90;;;;;;5076853;28;20297;-81
2021/11/10 12:27:59;;;;;;;20.10;18.30;;;8.30;99.90;;;;;;5077605;28;20201;-81
2021/11/10 12:30:34;;;;;;;19.70;18.03;;;8.30;99.90;;;;;;5087025;28;20221;-81
2021/11/10 12:33:15;;;;;;;20.30;18.50;;;8.30;99.90;;;;;;5091720;28;20247;-81
2021/11/10 12:35:50;;;;;;;21.00;19.20;;;8.30;99.90;;;;;;5092533;28;20194;-80
2021/11/10 12:38:23;;;;;;;21.67;19.57;;;8.30;99.90;;;;;;5087383;28;20197;-80
2021/11/10 12:41:00;;;;;;;20.07;18.37;;;8.20;99.90;;;;;;5085531;28;20221;-80
2021/11/10 12:43:47;;;;;;;19.83;18.17;;;8.30;99.90;;;;;;5086424;28;20213;-83
2021/11/10 12:49:45;;;;;;;20.67;18.60;;;8.20;99.90;;;;;;5084031;28;20223;-80
2021/11/10 12:53:00;;;;;;;20.00;18.17;;;8.20;99.90;;;;;;5086740;28;20569;-82